ADDS METAR Data INFO
IDs: Format: Raw Decoded Include TAF

Data at: 2114 UTC 22 Oct 2017

KBOK 222113Z AUTO 15007KT 1/4SM -RA FG OVC003 14/14 A3042 RMK AO2 P0003
KBOK 222056Z AUTO 14007KT 1/2SM -RA FG OVC003 14/14 A3041 RMK AO2 SLP312 P0019 60060 T01390139 50005
KBOK 222027Z AUTO 15008KT 1/4SM RA FG OVC003 14/13 A3042 RMK AO2 P0011
KBOK 221956Z AUTO 13006KT 3/4SM RA BR OVC003 13/13 A3042 RMK AO2 SLP316 P0022 T01330133
KBOK 221914Z AUTO VRB06KT 3/4SM RA BR OVC003 13/13 A3042 RMK AO2 P0005
KBOK 221856Z AUTO 14005KT 1 1/2SM RA BR OVC003 13/13 A3041 RMK AO2 SLP314 P0019 T01280128
KBOK 221756Z AUTO VRB05KT 1 1/4SM RA BR BKN003 OVC008 13/13 A3040 RMK AO2 SLP308 P0011 60015 T01330128 10139 20133 51014
KBOK 221754Z AUTO VRB05KT 1 1/4SM RA BR BKN003 OVC008 13/13 A3040 RMK AO2 P0010
KBOK 221749Z AUTO 15006KT 1 1/2SM RA BR OVC008 13/12 A3039 RMK AO2 CIG 004V010 P0009
KBOK 221718Z AUTO 14008KT 1 3/4SM -RA BR OVC010 13/12 A3039 RMK AO2 P0002
KBOK 221656Z AUTO 15008G14KT 7SM -RA OVC010 13/12 A3037 RMK AO2 RAB27 SLP301 P0000 T01330122
KBOK 221556Z AUTO 15007KT 10SM OVC010 14/12 A3035 RMK AO2 SLP294 T01390117
KBOK 221456Z AUTO 15009G14KT 10SM OVC010 13/12 A3033 RMK AO2 RAE25 SLP284 P0001 60004 T01330122 53009
KBOK 221356Z AUTO 15008KT 120V190 6SM -RA BR OVC010 13/12 A3032 RMK AO2 RAE17B53 SLP281 P0002 T01330122
KBOK 221333Z AUTO 16012G17KT 10SM OVC010 13/12 A3031 RMK AO2 RAE17 P0001
KBOK 221256Z AUTO 16009KT 4SM -RA BR OVC008 13/12 A3031 RMK AO2 RAB38 SLP278 P0001 T01330122
KBOK 221156Z AUTO 16011KT 9SM OVC008 13/13 A3030 RMK AO2 SLP275 70106 T01330128 10133 20128 53001
KBOK 221146Z AUTO 16008KT 9SM OVC006 13/13 A3030 RMK AO2 CIG 004V008
KBOK 221056Z AUTO 15012G18KT 9SM OVC004 13/13 A3028 RMK AO2 SLP270 T01330128
KBOK 220956Z AUTO 16013G20KT 6SM BR OVC004 13/13 A3030 RMK AO2 SLP275 T01330128
KBOK 220856Z AUTO 16014G18KT 8SM OVC004 13/13 A3028 RMK AO2 SLP268 T01330128 51005
KBOK 220814Z AUTO 16011G18KT 8SM OVC004 13/13 A3027 RMK AO2
KBOK 220756Z AUTO 15011G16KT 8SM OVC002 13/13 A3027 RMK AO2 SLP267 T01330128 401330083
KBOK 220656Z AUTO 16009KT 5SM BR OVC002 13/13 A3027 RMK AO2 SLP265 T01280128
KBOK 220556Z AUTO 16013G17KT 3SM BR OVC002 13/12 A3026 RMK AO2 SLP263 60003 T01280122 10128 20117 53017
KBOK 220456Z AUTO 15011G19KT 3SM BR OVC002 12/12 A3022 RMK AO2 RAE25 SLP249 P0000 T01220122
KBOK 220452Z AUTO 15012G18KT 3SM BR OVC002 12/12 A3022 RMK AO2 RAE25 P0000
KBOK 220427Z AUTO 16011G16KT 1 1/4SM BR OVC002 12/12 A3021 RMK AO2 RAE25 P0000
KBOK 220400Z AUTO 15010KT 3/4SM -RA BR OVC002 12/12 A3021 RMK AO2 P0000
KBOK 220356Z AUTO 15010KT 1 1/4SM -RA BR OVC002 12/12 A3021 RMK AO2 RAB33 SLP246 P0000 T01220117
KBOK 220353Z AUTO 16010KT 1 3/4SM -RA BR OVC002 12/12 A3021 RMK AO2 RAB33 P0000
KBOK 220256Z AUTO 15009KT 4SM BR OVC002 12/12 A3021 RMK AO2 SLP247 60003 T01220122 51010
KBOK 220156Z AUTO 15009G16KT 6SM BR OVC002 12/12 A3020 RMK AO2 RAE43 SLP242 P0001 T01220122
KBOK 220101Z AUTO 15010G19KT 3SM -RA BR OVC002 12/12 A3020 RMK AO2 P0000
KBOK 220056Z AUTO 16009G19KT 140V210 1 1/2SM -RA BR OVC002 12/12 A3020 RMK AO2 SLP242 P0002 T01170117
KBOK 220053Z AUTO 16011G19KT 140V200 3/4SM -RA BR OVC002 12/12 A3020 RMK AO2 P0002
KBOK 212356Z AUTO 15011G16KT 1/4SM -RA FG OVC002 12/12 A3018 RMK AO2 SLP237 P0003 60020 T01170117 10117 20111 53005
KBOK 212256Z AUTO 16012G16KT 1/4SM -RA FG OVC002 12/11 A3017 RMK AO2 SLP233 P0003 T01170111
KBOK 212156Z AUTO 15010G16KT 1/4SM -RA FG OVC002 11/11 A3017 RMK AO2 SLP234 P0004 T01110111
KBOK 212056Z AUTO 15011KT M1/4SM -RA FG OVC002 11/11 A3017 RMK AO2 SLP232 P0003 60010 T01110111 50007
KBOK 211956Z AUTO 17009G16KT 130V200 1/4SM -RA FG OVC002 11/11 A3017 RMK AO2 SLP233 P0003 T01110111
KBOK 211856Z AUTO 16012G20KT 1/4SM -RA FG OVC002 11/11 A3015 RMK AO2 SLP227 P0004 T01110111
KBOK 211851Z AUTO 15015G20KT 1/4SM -RA FG OVC002 11/11 A3015 RMK AO2 P0004
KBOK 211800Z AUTO 16014G24KT 1/2SM -RA FG OVC002 11/11 A3014 RMK AO2 P0000
KBOK 211756Z AUTO 15015G24KT 1SM -RA BR OVC002 11/11 A3014 RMK AO2 SLP223 P0006 60083 T01110106 10111 20089 53020
KBOK 211725Z AUTO 15014G21KT 1SM -RA BR OVC002 11/11 A3013 RMK AO2 P0003
KBOK 211709Z AUTO 15013G19KT 3/4SM -RA BR OVC002 11/11 A3012 RMK AO2 P0002
KBOK 211656Z AUTO 15014G21KT 1 3/4SM -RA BR OVC002 11/11 A3012 RMK AO2 SLP216 P0005 T01060106
KBOK 211652Z AUTO 15011G21KT 2 1/2SM -RA BR OVC002 11/11 A3012 RMK AO2 P0004
KBOK 211556Z AUTO 16012G20KT 5SM -RA BR OVC004 11/10 A3009 RMK AO2 SLP208 P0010 T01060100
KBOK 211531Z AUTO 15011G16KT 4SM -RA BR OVC004 10/09 A3008 RMK AO2 P0007
KBOK 211516Z AUTO 15010KT 2SM -RA BR OVC004 09/09 A3008 RMK AO2 P0004
KBOK 211456Z AUTO VRB04KT 2SM RA BR OVC006 09/09 A3008 RMK AO2 CIG 003V007 SLP203 P0017 60062 T00940089 55004
KBOK 211356Z AUTO 13007G16KT 3SM RA BR OVC006 09/08 A3008 RMK AO2 CIG 004V009 SLP203 P0022 T00890083
KBOK 211256Z AUTO 14012G19KT 4SM RA BR OVC008 09/08 A3009 RMK AO2 CIG 005V012 SLP207 P0023 T00890078
KBOK 211236Z AUTO 14011G16KT 4SM RA BR FEW006 OVC011 09/08 A3009 RMK AO2 P0015
KBOK 211156Z AUTO 13007KT 5SM RA BR OVC017 08/08 A3011 RMK AO2 SLP211 P0017 60034 70047 T00830078 10106 20083 57005
KBOK 211056Z AUTO 12007KT 10SM -RA BKN026 OVC033 09/08 A3011 RMK AO2 SLP212 P0009 T00890078
KBOK 210956Z AUTO 13007KT 8SM -RA BKN036 OVC049 09/08 A3012 RMK AO2 SLP216 P0003 T00940078